sensor_id;sensor_type;location;lat;lon;timestamp;P1;durP1;ratioP1;P2;durP2;ratioP2
73084;SDS011;62974;49.460;10.892;2023-03-31T00:01:09;1.50;;;0.70;;
73084;SDS011;62974;49.460;10.892;2023-03-31T00:03:41;0.68;;;0.45;;
73084;SDS011;62974;49.460;10.892;2023-03-31T00:06:10;3.22;;;0.95;;
73084;SDS011;62974;49.460;10.892;2023-03-31T00:08:43;3.50;;;0.80;;
73084;SDS011;62974;49.460;10.892;2023-03-31T00:11:19;4.78;;;0.70;;
73084;SDS011;62974;49.460;10.892;2023-03-31T00:13:56;2.85;;;0.70;;
73084;SDS011;62974;49.460;10.892;2023-03-31T00:16:26;4.47;;;0.90;;
73084;SDS011;62974;49.460;10.892;2023-03-31T00:19:01;2.13;;;1.10;;
73084;SDS011;62974;49.460;10.892;2023-03-31T00:21:39;4.00;;;0.75;;
73084;SDS011;62974;49.460;10.892;2023-03-31T00:24:09;3.58;;;0.77;;
73084;SDS011;62974;49.460;10.892;2023-03-31T00:26:39;3.80;;;0.70;;
73084;SDS011;62974;49.460;10.892;2023-03-31T00:29:12;1.33;;;0.73;;
73084;SDS011;62974;49.460;10.892;2023-03-31T00:31:46;4.50;;;0.73;;
73084;SDS011;62974;49.460;10.892;2023-03-31T00:34:23;4.65;;;0.98;;
73084;SDS011;62974;49.460;10.892;2023-03-31T00:36:55;3.72;;;0.75;;
73084;SDS011;62974;49.460;10.892;2023-03-31T00:39:28;3.35;;;0.77;;
73084;SDS011;62974;49.460;10.892;2023-03-31T00:42:00;4.32;;;1.00;;
73084;SDS011;62974;49.460;10.892;2023-03-31T00:44:29;2.85;;;1.05;;
73084;SDS011;62974;49.460;10.892;2023-03-31T00:47:00;1.83;;;0.70;;
73084;SDS011;62974;49.460;10.892;2023-03-31T00:49:34;2.97;;;0.93;;
73084;SDS011;62974;49.460;10.892;2023-03-31T00:52:09;3.05;;;0.88;;
73084;SDS011;62974;49.460;10.892;2023-03-31T00:54:41;1.42;;;0.82;;
73084;SDS011;62974;49.460;10.892;2023-03-31T00:57:11;1.88;;;0.85;;
73084;SDS011;62974;49.460;10.892;2023-03-31T00:59:43;1.92;;;0.77;;
73084;SDS011;62974;49.460;10.892;2023-03-31T01:02:17;1.75;;;1.00;;
73084;SDS011;62974;49.460;10.892;2023-03-31T01:04:53;2.05;;;0.60;;
73084;SDS011;62974;49.460;10.892;2023-03-31T01:07:28;2.33;;;0.75;;
73084;SDS011;62974;49.460;10.892;2023-03-31T01:10:00;3.70;;;0.85;;
73084;SDS011;62974;49.460;10.892;2023-03-31T01:12:33;4.47;;;0.93;;
73084;SDS011;62974;49.460;10.892;2023-03-31T01:15:09;1.45;;;0.80;;
73084;SDS011;62974;49.460;10.892;2023-03-31T01:17:42;4.22;;;0.70;;
73084;SDS011;62974;49.460;10.892;2023-03-31T01:20:14;2.88;;;0.77;;
73084;SDS011;62974;49.460;10.892;2023-03-31T01:22:53;3.58;;;0.68;;
73084;SDS011;62974;49.460;10.892;2023-03-31T01:28:44;2.20;;;0.65;;
73084;SDS011;62974;49.460;10.892;2023-03-31T01:34:52;3.53;;;0.80;;
73084;SDS011;62974;49.460;10.892;2023-03-31T01:37:48;1.23;;;0.52;;
73084;SDS011;62974;49.460;10.892;2023-03-31T01:40:36;3.95;;;1.10;;
73084;SDS011;62974;49.460;10.892;2023-03-31T01:43:25;3.35;;;0.90;;
73084;SDS011;62974;49.460;10.892;2023-03-31T01:46:01;2.25;;;0.85;;
73084;SDS011;62974;49.460;10.892;2023-03-31T01:48:41;1.55;;;0.60;;
73084;SDS011;62974;49.460;10.892;2023-03-31T01:51:16;2.78;;;0.70;;
73084;SDS011;62974;49.460;10.892;2023-03-31T01:53:53;2.85;;;0.50;;
73084;SDS011;62974;49.460;10.892;2023-03-31T01:56:29;0.68;;;0.50;;
73084;SDS011;62974;49.460;10.892;2023-03-31T01:59:05;4.30;;;0.80;;
73084;SDS011;62974;49.460;10.892;2023-03-31T02:01:48;3.13;;;0.90;;
73084;SDS011;62974;49.460;10.892;2023-03-31T02:04:22;2.15;;;0.55;;
73084;SDS011;62974;49.460;10.892;2023-03-31T02:06:54;1.40;;;0.77;;
73084;SDS011;62974;49.460;10.892;2023-03-31T02:09:27;1.90;;;0.88;;
73084;SDS011;62974;49.460;10.892;2023-03-31T02:12:03;3.15;;;1.23;;
73084;SDS011;62974;49.460;10.892;2023-03-31T02:14:35;2.55;;;0.77;;
73084;SDS011;62974;49.460;10.892;2023-03-31T02:17:07;2.35;;;0.80;;
73084;SDS011;62974;49.460;10.892;2023-03-31T02:19:43;1.77;;;1.00;;
73084;SDS011;62974;49.460;10.892;2023-03-31T02:22:21;3.35;;;0.60;;
73084;SDS011;62974;49.460;10.892;2023-03-31T02:24:55;1.55;;;0.77;;
73084;SDS011;62974;49.460;10.892;2023-03-31T02:27:26;6.25;;;1.25;;
73084;SDS011;62974;49.460;10.892;2023-03-31T02:29:57;0.82;;;0.65;;
73084;SDS011;62974;49.460;10.892;2023-03-31T02:32:27;3.80;;;0.80;;
73084;SDS011;62974;49.460;10.892;2023-03-31T02:35:05;3.28;;;0.93;;
73084;SDS011;62974;49.460;10.892;2023-03-31T02:37:39;2.40;;;0.90;;
73084;SDS011;62974;49.460;10.892;2023-03-31T02:40:09;1.42;;;0.65;;
73084;SDS011;62974;49.460;10.892;2023-03-31T02:42:40;1.35;;;0.60;;
73084;SDS011;62974;49.460;10.892;2023-03-31T02:48:10;5.85;;;0.95;;
73084;SDS011;62974;49.460;10.892;2023-03-31T02:50:50;2.35;;;0.88;;
73084;SDS011;62974;49.460;10.892;2023-03-31T02:53:39;0.55;;;0.40;;
73084;SDS011;62974;49.460;10.892;2023-03-31T02:56:26;0.50;;;0.47;;
73084;SDS011;62974;49.460;10.892;2023-03-31T02:59:16;4.90;;;0.80;;
73084;SDS011;62974;49.460;10.892;2023-03-31T03:01:59;2.90;;;0.60;;
73084;SDS011;62974;49.460;10.892;2023-03-31T03:04:41;6.53;;;1.08;;
73084;SDS011;62974;49.460;10.892;2023-03-31T03:07:33;2.78;;;1.15;;
73084;SDS011;62974;49.460;10.892;2023-03-31T03:10:08;2.45;;;0.73;;
73084;SDS011;62974;49.460;10.892;2023-03-31T03:12:41;3.38;;;1.58;;
73084;SDS011;62974;49.460;10.892;2023-03-31T03:15:20;4.63;;;1.00;;
73084;SDS011;62974;49.460;10.892;2023-03-31T03:17:52;4.07;;;0.75;;
73084;SDS011;62974;49.460;10.892;2023-03-31T03:20:22;3.50;;;0.63;;
73084;SDS011;62974;49.460;10.892;2023-03-31T03:22:50;4.22;;;0.57;;
73084;SDS011;62974;49.460;10.892;2023-03-31T03:25:17;2.75;;;0.80;;
73084;SDS011;62974;49.460;10.892;2023-03-31T03:27:47;1.10;;;0.28;;
73084;SDS011;62974;49.460;10.892;2023-03-31T03:30:16;5.43;;;1.20;;
73084;SDS011;62974;49.460;10.892;2023-03-31T03:32:48;0.40;;;0.25;;
73084;SDS011;62974;49.460;10.892;2023-03-31T03:35:15;2.53;;;0.22;;
73084;SDS011;62974;49.460;10.892;2023-03-31T03:37:43;1.35;;;0.57;;
73084;SDS011;62974;49.460;10.892;2023-03-31T03:40:11;2.35;;;0.77;;
73084;SDS011;62974;49.460;10.892;2023-03-31T03:42:39;0.38;;;0.38;;
73084;SDS011;62974;49.460;10.892;2023-03-31T03:45:10;0.32;;;0.25;;
73084;SDS011;62974;49.460;10.892;2023-03-31T03:47:38;3.90;;;0.60;;
73084;SDS011;62974;49.460;10.892;2023-03-31T03:50:09;4.90;;;0.77;;
73084;SDS011;62974;49.460;10.892;2023-03-31T03:52:42;5.18;;;1.60;;
73084;SDS011;62974;49.460;10.892;2023-03-31T03:55:12;1.50;;;0.73;;
73084;SDS011;62974;49.460;10.892;2023-03-31T03:58:06;5.88;;;1.52;;
73084;SDS011;62974;49.460;10.892;2023-03-31T04:00:43;5.00;;;1.05;;
73084;SDS011;62974;49.460;10.892;2023-03-31T04:03:34;4.78;;;1.20;;
73084;SDS011;62974;49.460;10.892;2023-03-31T04:06:20;0.93;;;0.43;;
73084;SDS011;62974;49.460;10.892;2023-03-31T04:09:02;1.17;;;0.60;;
73084;SDS011;62974;49.460;10.892;2023-03-31T04:14:03;7.80;;;1.63;;
73084;SDS011;62974;49.460;10.892;2023-03-31T04:16:33;3.85;;;0.90;;
73084;SDS011;62974;49.460;10.892;2023-03-31T04:19:02;2.45;;;0.90;;
73084;SDS011;62974;49.460;10.892;2023-03-31T04:21:30;3.10;;;0.85;;
73084;SDS011;62974;49.460;10.892;2023-03-31T04:24:00;1.45;;;0.70;;
73084;SDS011;62974;49.460;10.892;2023-03-31T04:26:30;4.25;;;0.80;;
73084;SDS011;62974;49.460;10.892;2023-03-31T04:29:08;3.92;;;1.80;;
73084;SDS011;62974;49.460;10.892;2023-03-31T04:31:37;4.38;;;1.65;;
73084;SDS011;62974;49.460;10.892;2023-03-31T04:34:10;4.90;;;0.95;;
73084;SDS011;62974;49.460;10.892;2023-03-31T04:36:39;4.13;;;1.00;;
73084;SDS011;62974;49.460;10.892;2023-03-31T04:39:12;3.45;;;0.80;;
73084;SDS011;62974;49.460;10.892;2023-03-31T04:41:40;5.15;;;1.17;;
73084;SDS011;62974;49.460;10.892;2023-03-31T04:44:08;3.03;;;0.88;;
73084;SDS011;62974;49.460;10.892;2023-03-31T04:46:35;3.28;;;1.10;;
73084;SDS011;62974;49.460;10.892;2023-03-31T04:49:03;2.67;;;0.90;;
73084;SDS011;62974;49.460;10.892;2023-03-31T04:51:32;4.18;;;1.13;;
73084;SDS011;62974;49.460;10.892;2023-03-31T04:53:59;2.40;;;1.10;;
73084;SDS011;62974;49.460;10.892;2023-03-31T04:56:27;3.88;;;0.98;;
73084;SDS011;62974;49.460;10.892;2023-03-31T04:58:54;1.77;;;0.75;;
73084;SDS011;62974;49.460;10.892;2023-03-31T05:01:22;3.00;;;1.00;;
73084;SDS011;62974;49.460;10.892;2023-03-31T05:03:49;0.90;;;0.68;;
73084;SDS011;62974;49.460;10.892;2023-03-31T05:06:17;2.00;;;0.77;;
73084;SDS011;62974;49.460;10.892;2023-03-31T05:08:46;1.73;;;0.73;;
73084;SDS011;62974;49.460;10.892;2023-03-31T05:11:13;2.70;;;0.90;;
73084;SDS011;62974;49.460;10.892;2023-03-31T05:13:41;2.45;;;0.80;;
73084;SDS011;62974;49.460;10.892;2023-03-31T05:16:09;4.32;;;1.20;;
73084;SDS011;62974;49.460;10.892;2023-03-31T05:18:40;1.52;;;0.75;;
73084;SDS011;62974;49.460;10.892;2023-03-31T05:21:08;1.88;;;0.70;;
73084;SDS011;62974;49.460;10.892;2023-03-31T05:23:37;2.72;;;0.77;;
73084;SDS011;62974;49.460;10.892;2023-03-31T05:26:06;4.22;;;1.60;;
73084;SDS011;62974;49.460;10.892;2023-03-31T05:28:34;3.42;;;1.08;;
73084;SDS011;62974;49.460;10.892;2023-03-31T05:31:02;3.45;;;1.02;;
73084;SDS011;62974;49.460;10.892;2023-03-31T05:33:32;2.58;;;0.90;;
73084;SDS011;62974;49.460;10.892;2023-03-31T05:36:05;2.08;;;0.70;;
73084;SDS011;62974;49.460;10.892;2023-03-31T05:38:35;2.97;;;0.98;;
73084;SDS011;62974;49.460;10.892;2023-03-31T05:41:02;2.35;;;0.85;;
73084;SDS011;62974;49.460;10.892;2023-03-31T05:43:31;4.82;;;1.83;;
73084;SDS011;62974;49.460;10.892;2023-03-31T05:45:59;2.45;;;1.08;;
73084;SDS011;62974;49.460;10.892;2023-03-31T05:48:26;2.63;;;1.02;;
73084;SDS011;62974;49.460;10.892;2023-03-31T05:50:55;4.72;;;1.52;;
73084;SDS011;62974;49.460;10.892;2023-03-31T05:53:23;3.25;;;0.95;;
73084;SDS011;62974;49.460;10.892;2023-03-31T05:55:55;2.28;;;0.85;;
73084;SDS011;62974;49.460;10.892;2023-03-31T05:58:23;3.55;;;1.58;;
73084;SDS011;62974;49.460;10.892;2023-03-31T06:01:00;2.60;;;0.75;;
73084;SDS011;62974;49.460;10.892;2023-03-31T06:03:31;3.85;;;1.00;;
73084;SDS011;62974;49.460;10.892;2023-03-31T06:05:59;2.65;;;0.93;;
73084;SDS011;62974;49.460;10.892;2023-03-31T06:08:28;1.80;;;0.93;;
73084;SDS011;62974;49.460;10.892;2023-03-31T06:10:55;4.78;;;1.23;;
73084;SDS011;62974;49.460;10.892;2023-03-31T06:13:23;3.08;;;1.38;;
73084;SDS011;62974;49.460;10.892;2023-03-31T06:15:54;2.22;;;0.47;;
73084;SDS011;62974;49.460;10.892;2023-03-31T06:18:24;2.97;;;0.73;;
73084;SDS011;62974;49.460;10.892;2023-03-31T06:20:54;0.73;;;0.43;;
73084;SDS011;62974;49.460;10.892;2023-03-31T06:23:22;1.23;;;0.50;;
73084;SDS011;62974;49.460;10.892;2023-03-31T06:25:50;2.15;;;0.80;;
73084;SDS011;62974;49.460;10.892;2023-03-31T06:28:19;2.20;;;0.95;;
73084;SDS011;62974;49.460;10.892;2023-03-31T06:30:47;4.03;;;1.80;;
73084;SDS011;62974;49.460;10.892;2023-03-31T06:33:15;1.58;;;0.60;;
73084;SDS011;62974;49.460;10.892;2023-03-31T06:35:44;3.05;;;1.00;;
73084;SDS011;62974;49.460;10.892;2023-03-31T06:38:12;3.08;;;1.05;;
73084;SDS011;62974;49.460;10.892;2023-03-31T06:40:39;5.63;;;0.93;;
73084;SDS011;62974;49.460;10.892;2023-03-31T06:43:08;2.03;;;0.77;;
73084;SDS011;62974;49.460;10.892;2023-03-31T06:45:35;3.03;;;1.00;;
73084;SDS011;62974;49.460;10.892;2023-03-31T06:48:03;1.27;;;0.93;;
73084;SDS011;62974;49.460;10.892;2023-03-31T06:50:32;1.48;;;1.02;;
73084;SDS011;62974;49.460;10.892;2023-03-31T06:53:00;0.85;;;0.47;;
73084;SDS011;62974;49.460;10.892;2023-03-31T06:55:28;2.63;;;1.10;;
73084;SDS011;62974;49.460;10.892;2023-03-31T06:57:55;0.75;;;0.70;;
73084;SDS011;62974;49.460;10.892;2023-03-31T07:00:23;2.75;;;1.38;;
73084;SDS011;62974;49.460;10.892;2023-03-31T07:02:52;1.02;;;0.28;;
73084;SDS011;62974;49.460;10.892;2023-03-31T07:05:20;3.05;;;0.32;;
73084;SDS011;62974;49.460;10.892;2023-03-31T07:07:52;2.22;;;1.10;;
73084;SDS011;62974;49.460;10.892;2023-03-31T07:10:21;6.07;;;1.98;;
73084;SDS011;62974;49.460;10.892;2023-03-31T07:12:49;7.00;;;1.48;;
73084;SDS011;62974;49.460;10.892;2023-03-31T07:15:17;5.00;;;1.35;;
73084;SDS011;62974;49.460;10.892;2023-03-31T07:17:45;3.92;;;1.15;;
73084;SDS011;62974;49.460;10.892;2023-03-31T07:20:17;5.07;;;2.03;;
73084;SDS011;62974;49.460;10.892;2023-03-31T07:25:14;3.63;;;1.42;;
73084;SDS011;62974;49.460;10.892;2023-03-31T07:27:45;0.98;;;0.80;;
73084;SDS011;62974;49.460;10.892;2023-03-31T07:30:13;5.40;;;2.13;;
73084;SDS011;62974;49.460;10.892;2023-03-31T07:32:42;0.47;;;0.30;;
73084;SDS011;62974;49.460;10.892;2023-03-31T07:35:12;8.05;;;2.40;;
73084;SDS011;62974;49.460;10.892;2023-03-31T07:37:40;2.63;;;1.13;;
73084;SDS011;62974;49.460;10.892;2023-03-31T07:40:10;5.32;;;2.17;;
73084;SDS011;62974;49.460;10.892;2023-03-31T07:42:40;4.55;;;1.73;;
73084;SDS011;62974;49.460;10.892;2023-03-31T07:45:10;5.20;;;1.50;;
73084;SDS011;62974;49.460;10.892;2023-03-31T07:47:37;5.70;;;2.15;;
73084;SDS011;62974;49.460;10.892;2023-03-31T07:50:06;7.13;;;2.22;;
73084;SDS011;62974;49.460;10.892;2023-03-31T07:52:34;3.85;;;1.70;;
73084;SDS011;62974;49.460;10.892;2023-03-31T07:55:01;6.40;;;2.20;;
73084;SDS011;62974;49.460;10.892;2023-03-31T07:57:29;5.18;;;2.45;;
73084;SDS011;62974;49.460;10.892;2023-03-31T07:59:57;4.78;;;2.50;;
73084;SDS011;62974;49.460;10.892;2023-03-31T08:02:26;6.88;;;2.78;;
73084;SDS011;62974;49.460;10.892;2023-03-31T08:04:53;4.35;;;2.13;;
73084;SDS011;62974;49.460;10.892;2023-03-31T08:07:21;4.70;;;1.73;;
73084;SDS011;62974;49.460;10.892;2023-03-31T08:09:49;5.57;;;2.78;;
73084;SDS011;62974;49.460;10.892;2023-03-31T08:12:16;3.03;;;1.67;;
73084;SDS011;62974;49.460;10.892;2023-03-31T08:14:44;6.40;;;2.08;;
73084;SDS011;62974;49.460;10.892;2023-03-31T08:17:11;1.27;;;0.95;;
73084;SDS011;62974;49.460;10.892;2023-03-31T08:19:40;6.30;;;2.83;;
73084;SDS011;62974;49.460;10.892;2023-03-31T08:22:07;5.10;;;1.88;;
73084;SDS011;62974;49.460;10.892;2023-03-31T08:24:35;6.75;;;2.30;;
73084;SDS011;62974;49.460;10.892;2023-03-31T08:27:02;1.83;;;1.40;;
73084;SDS011;62974;49.460;10.892;2023-03-31T08:29:39;4.00;;;2.08;;
73084;SDS011;62974;49.460;10.892;2023-03-31T08:32:07;2.97;;;1.88;;
73084;SDS011;62974;49.460;10.892;2023-03-31T08:34:34;8.50;;;2.50;;
73084;SDS011;62974;49.460;10.892;2023-03-31T08:37:04;7.18;;;2.83;;
73084;SDS011;62974;49.460;10.892;2023-03-31T08:39:32;4.30;;;2.10;;
73084;SDS011;62974;49.460;10.892;2023-03-31T08:42:03;5.45;;;2.20;;
73084;SDS011;62974;49.460;10.892;2023-03-31T08:44:41;2.17;;;1.40;;
73084;SDS011;62974;49.460;10.892;2023-03-31T08:47:14;2.78;;;0.82;;
73084;SDS011;62974;49.460;10.892;2023-03-31T08:49:46;5.05;;;0.80;;
73084;SDS011;62974;49.460;10.892;2023-03-31T08:52:21;4.28;;;2.40;;
73084;SDS011;62974;49.460;10.892;2023-03-31T08:54:54;3.80;;;2.33;;
73084;SDS011;62974;49.460;10.892;2023-03-31T08:57:25;2.90;;;2.03;;
73084;SDS011;62974;49.460;10.892;2023-03-31T08:59:59;3.17;;;1.45;;
73084;SDS011;62974;49.460;10.892;2023-03-31T09:02:33;8.15;;;2.88;;
73084;SDS011;62974;49.460;10.892;2023-03-31T09:05:17;5.30;;;1.92;;
73084;SDS011;62974;49.460;10.892;2023-03-31T09:07:58;2.85;;;1.95;;
73084;SDS011;62974;49.460;10.892;2023-03-31T09:10:34;2.55;;;1.42;;
73084;SDS011;62974;49.460;10.892;2023-03-31T09:13:16;5.80;;;2.80;;
73084;SDS011;62974;49.460;10.892;2023-03-31T09:15:55;5.20;;;1.98;;
73084;SDS011;62974;49.460;10.892;2023-03-31T09:18:29;2.75;;;1.85;;
73084;SDS011;62974;49.460;10.892;2023-03-31T09:21:02;3.60;;;1.83;;
73084;SDS011;62974;49.460;10.892;2023-03-31T09:23:37;0.30;;;0.20;;
73084;SDS011;62974;49.460;10.892;2023-03-31T09:28:39;5.30;;;1.33;;
73084;SDS011;62974;49.460;10.892;2023-03-31T09:31:10;2.95;;;1.25;;
73084;SDS011;62974;49.460;10.892;2023-03-31T09:33:41;4.05;;;1.67;;
73084;SDS011;62974;49.460;10.892;2023-03-31T09:36:13;6.50;;;2.17;;
73084;SDS011;62974;49.460;10.892;2023-03-31T09:38:44;5.40;;;1.85;;
73084;SDS011;62974;49.460;10.892;2023-03-31T09:41:13;4.55;;;1.40;;
73084;SDS011;62974;49.460;10.892;2023-03-31T09:43:42;6.75;;;2.40;;
73084;SDS011;62974;49.460;10.892;2023-03-31T09:46:14;3.55;;;1.80;;
73084;SDS011;62974;49.460;10.892;2023-03-31T09:48:49;3.90;;;1.88;;
73084;SDS011;62974;49.460;10.892;2023-03-31T09:51:23;4.45;;;1.15;;
73084;SDS011;62974;49.460;10.892;2023-03-31T09:53:59;2.58;;;1.25;;
73084;SDS011;62974;49.460;10.892;2023-03-31T09:56:42;4.18;;;1.73;;
73084;SDS011;62974;49.460;10.892;2023-03-31T09:59:14;1.70;;;1.05;;
73084;SDS011;62974;49.460;10.892;2023-03-31T10:01:44;4.97;;;1.70;;
73084;SDS011;62974;49.460;10.892;2023-03-31T10:04:16;2.85;;;0.85;;
73084;SDS011;62974;49.460;10.892;2023-03-31T10:06:47;2.60;;;1.00;;
73084;SDS011;62974;49.460;10.892;2023-03-31T10:09:16;3.45;;;1.73;;
73084;SDS011;62974;49.460;10.892;2023-03-31T10:11:50;4.28;;;1.42;;
73084;SDS011;62974;49.460;10.892;2023-03-31T10:14:23;1.83;;;0.98;;
73084;SDS011;62974;49.460;10.892;2023-03-31T10:16:52;3.05;;;1.48;;
73084;SDS011;62974;49.460;10.892;2023-03-31T10:19:23;6.13;;;1.40;;
73084;SDS011;62974;49.460;10.892;2023-03-31T10:21:56;5.18;;;1.48;;
73084;SDS011;62974;49.460;10.892;2023-03-31T10:24:25;11.80;;;2.60;;
73084;SDS011;62974;49.460;10.892;2023-03-31T10:27:03;2.47;;;0.77;;
73084;SDS011;62974;49.460;10.892;2023-03-31T10:29:33;1.95;;;0.90;;
73084;SDS011;62974;49.460;10.892;2023-03-31T10:32:01;0.80;;;0.52;;
73084;SDS011;62974;49.460;10.892;2023-03-31T10:34:30;3.83;;;0.50;;
73084;SDS011;62974;49.460;10.892;2023-03-31T10:36:58;2.50;;;0.68;;
73084;SDS011;62974;49.460;10.892;2023-03-31T10:39:29;3.13;;;0.90;;
73084;SDS011;62974;49.460;10.892;2023-03-31T10:41:58;1.75;;;0.73;;
73084;SDS011;62974;49.460;10.892;2023-03-31T10:44:30;1.50;;;0.57;;
73084;SDS011;62974;49.460;10.892;2023-03-31T10:47:02;5.93;;;1.13;;
73084;SDS011;62974;49.460;10.892;2023-03-31T10:49:36;2.97;;;0.90;;
73084;SDS011;62974;49.460;10.892;2023-03-31T10:52:14;1.60;;;0.60;;
73084;SDS011;62974;49.460;10.892;2023-03-31T10:54:48;5.90;;;0.90;;
73084;SDS011;62974;49.460;10.892;2023-03-31T10:57:20;2.83;;;1.02;;
73084;SDS011;62974;49.460;10.892;2023-03-31T10:59:57;1.85;;;0.77;;
73084;SDS011;62974;49.460;10.892;2023-03-31T11:02:42;2.80;;;0.85;;
73084;SDS011;62974;49.460;10.892;2023-03-31T11:05:22;1.25;;;0.57;;
73084;SDS011;62974;49.460;10.892;2023-03-31T11:07:58;3.85;;;0.52;;
73084;SDS011;62974;49.460;10.892;2023-03-31T11:10:38;4.57;;;1.27;;
73084;SDS011;62974;49.460;10.892;2023-03-31T11:13:19;1.02;;;0.20;;
73084;SDS011;62974;49.460;10.892;2023-03-31T11:15:53;2.65;;;0.93;;
73084;SDS011;62974;49.460;10.892;2023-03-31T11:18:33;2.92;;;1.00;;
73084;SDS011;62974;49.460;10.892;2023-03-31T11:21:09;4.40;;;0.90;;
73084;SDS011;62974;49.460;10.892;2023-03-31T11:23:48;1.33;;;0.40;;
73084;SDS011;62974;49.460;10.892;2023-03-31T11:28:57;2.17;;;0.70;;
73084;SDS011;62974;49.460;10.892;2023-03-31T11:31:35;0.47;;;0.22;;
73084;SDS011;62974;49.460;10.892;2023-03-31T11:34:19;1.73;;;0.60;;
73084;SDS011;62974;49.460;10.892;2023-03-31T11:37:25;1.25;;;0.55;;
73084;SDS011;62974;49.460;10.892;2023-03-31T11:40:05;3.20;;;0.60;;
73084;SDS011;62974;49.460;10.892;2023-03-31T11:42:45;2.05;;;0.70;;
73084;SDS011;62974;49.460;10.892;2023-03-31T11:45:17;4.43;;;0.90;;
73084;SDS011;62974;49.460;10.892;2023-03-31T11:47:48;1.77;;;0.50;;
73084;SDS011;62974;49.460;10.892;2023-03-31T11:50:20;1.77;;;0.75;;
73084;SDS011;62974;49.460;10.892;2023-03-31T11:52:52;2.63;;;0.73;;
73084;SDS011;62974;49.460;10.892;2023-03-31T11:55:24;4.88;;;0.65;;
73084;SDS011;62974;49.460;10.892;2023-03-31T11:57:58;2.97;;;0.65;;
73084;SDS011;62974;49.460;10.892;2023-03-31T12:00:31;3.25;;;0.88;;
73084;SDS011;62974;49.460;10.892;2023-03-31T12:03:03;0.80;;;0.40;;
73084;SDS011;62974;49.460;10.892;2023-03-31T12:05:36;3.53;;;0.65;;
73084;SDS011;62974;49.460;10.892;2023-03-31T12:08:10;2.90;;;0.80;;
73084;SDS011;62974;49.460;10.892;2023-03-31T12:10:42;1.98;;;0.52;;
73084;SDS011;62974;49.460;10.892;2023-03-31T12:13:22;4.57;;;0.60;;
73084;SDS011;62974;49.460;10.892;2023-03-31T12:16:00;2.10;;;0.57;;
73084;SDS011;62974;49.460;10.892;2023-03-31T12:18:33;5.00;;;0.50;;
73084;SDS011;62974;49.460;10.892;2023-03-31T12:21:04;0.75;;;0.60;;
73084;SDS011;62974;49.460;10.892;2023-03-31T12:23:34;1.95;;;0.50;;
73084;SDS011;62974;49.460;10.892;2023-03-31T12:26:08;0.40;;;0.30;;
73084;SDS011;62974;49.460;10.892;2023-03-31T12:28:46;0.08;;;0.08;;
73084;SDS011;62974;49.460;10.892;2023-03-31T12:31:19;3.10;;;0.60;;
73084;SDS011;62974;49.460;10.892;2023-03-31T12:33:51;2.25;;;0.70;;
73084;SDS011;62974;49.460;10.892;2023-03-31T12:36:25;1.50;;;0.70;;
73084;SDS011;62974;49.460;10.892;2023-03-31T12:39:06;1.90;;;0.40;;
73084;SDS011;62974;49.460;10.892;2023-03-31T12:41:45;0.80;;;0.50;;
73084;SDS011;62974;49.460;10.892;2023-03-31T12:44:34;2.95;;;0.75;;
73084;SDS011;62974;49.460;10.892;2023-03-31T12:47:25;3.40;;;0.70;;
73084;SDS011;62974;49.460;10.892;2023-03-31T12:50:08;0.63;;;0.40;;
73084;SDS011;62974;49.460;10.892;2023-03-31T12:52:50;2.95;;;0.50;;
73084;SDS011;62974;49.460;10.892;2023-03-31T12:55:31;1.42;;;0.60;;
73084;SDS011;62974;49.460;10.892;2023-03-31T13:01:05;0.60;;;0.30;;
73084;SDS011;62974;49.460;10.892;2023-03-31T13:03:40;3.03;;;0.80;;
73084;SDS011;62974;49.460;10.892;2023-03-31T13:06:11;0.30;;;0.10;;
73084;SDS011;62974;49.460;10.892;2023-03-31T13:09:40;1.42;;;0.30;;
73084;SDS011;62974;49.460;10.892;2023-03-31T13:12:18;0.77;;;0.70;;
73084;SDS011;62974;49.460;10.892;2023-03-31T13:14:49;0.52;;;0.38;;
73084;SDS011;62974;49.460;10.892;2023-03-31T13:17:20;0.10;;;0.10;;
73084;SDS011;62974;49.460;10.892;2023-03-31T13:20:15;1.10;;;0.25;;
73084;SDS011;62974;49.460;10.892;2023-03-31T13:22:58;2.53;;;0.40;;
73084;SDS011;62974;49.460;10.892;2023-03-31T13:28:30;1.98;;;0.40;;
73084;SDS011;62974;49.460;10.892;2023-03-31T13:31:00;0.55;;;0.10;;
73084;SDS011;62974;49.460;10.892;2023-03-31T13:33:34;0.45;;;0.20;;
73084;SDS011;62974;49.460;10.892;2023-03-31T13:42:52;3.50;;;0.38;;
73084;SDS011;62974;49.460;10.892;2023-03-31T13:45:41;3.60;;;0.40;;
73084;SDS011;62974;49.460;10.892;2023-03-31T13:48:19;0.50;;;0.13;;
73084;SDS011;62974;49.460;10.892;2023-03-31T13:51:06;2.83;;;0.28;;
73084;SDS011;62974;49.460;10.892;2023-03-31T13:53:47;0.77;;;0.45;;
73084;SDS011;62974;49.460;10.892;2023-03-31T13:56:33;0.88;;;0.30;;
73084;SDS011;62974;49.460;10.892;2023-03-31T13:59:18;3.92;;;0.50;;
73084;SDS011;62974;49.460;10.892;2023-03-31T14:01:58;2.72;;;0.32;;
73084;SDS011;62974;49.460;10.892;2023-03-31T14:04:55;0.25;;;0.15;;
73084;SDS011;62974;49.460;10.892;2023-03-31T14:07:33;2.13;;;0.35;;
73084;SDS011;62974;49.460;10.892;2023-03-31T14:10:05;0.60;;;0.20;;
73084;SDS011;62974;49.460;10.892;2023-03-31T14:12:47;1.17;;;0.43;;
73084;SDS011;62974;49.460;10.892;2023-03-31T14:15:19;3.70;;;0.52;;
73084;SDS011;62974;49.460;10.892;2023-03-31T14:17:47;0.85;;;0.30;;
73084;SDS011;62974;49.460;10.892;2023-03-31T14:20:23;3.15;;;0.45;;
73084;SDS011;62974;49.460;10.892;2023-03-31T14:22:58;0.95;;;0.25;;
73084;SDS011;62974;49.460;10.892;2023-03-31T14:25:40;5.93;;;0.50;;
73084;SDS011;62974;49.460;10.892;2023-03-31T14:28:24;1.48;;;0.40;;
73084;SDS011;62974;49.460;10.892;2023-03-31T14:36:22;2.95;;;0.40;;
73084;SDS011;62974;49.460;10.892;2023-03-31T14:39:00;0.10;;;0.00;;
73084;SDS011;62974;49.460;10.892;2023-03-31T14:41:30;0.30;;;0.25;;
73084;SDS011;62974;49.460;10.892;2023-03-31T14:43:59;1.50;;;0.52;;
73084;SDS011;62974;49.460;10.892;2023-03-31T14:46:31;0.73;;;0.38;;
73084;SDS011;62974;49.460;10.892;2023-03-31T14:49:05;0.95;;;0.30;;
73084;SDS011;62974;49.460;10.892;2023-03-31T14:51:42;1.77;;;0.40;;
73084;SDS011;62974;49.460;10.892;2023-03-31T14:54:14;0.55;;;0.20;;
73084;SDS011;62974;49.460;10.892;2023-03-31T14:56:44;1.75;;;0.28;;
73084;SDS011;62974;49.460;10.892;2023-03-31T14:59:16;3.13;;;0.20;;
73084;SDS011;62974;49.460;10.892;2023-03-31T15:01:49;4.03;;;1.02;;
73084;SDS011;62974;49.460;10.892;2023-03-31T15:04:18;4.40;;;0.80;;
73084;SDS011;62974;49.460;10.892;2023-03-31T15:07:04;2.05;;;0.28;;
73084;SDS011;62974;49.460;10.892;2023-03-31T15:09:32;1.73;;;0.20;;
73084;SDS011;62974;49.460;10.892;2023-03-31T15:12:02;3.70;;;0.55;;
73084;SDS011;62974;49.460;10.892;2023-03-31T15:14:34;1.13;;;0.30;;
73084;SDS011;62974;49.460;10.892;2023-03-31T15:17:14;1.00;;;0.35;;
73084;SDS011;62974;49.460;10.892;2023-03-31T15:19:51;0.70;;;0.45;;
73084;SDS011;62974;49.460;10.892;2023-03-31T15:22:20;3.70;;;0.45;;
73084;SDS011;62974;49.460;10.892;2023-03-31T15:24:49;0.85;;;0.30;;
73084;SDS011;62974;49.460;10.892;2023-03-31T15:27:17;0.85;;;0.60;;
73084;SDS011;62974;49.460;10.892;2023-03-31T15:30:03;2.30;;;0.30;;
73084;SDS011;62974;49.460;10.892;2023-03-31T15:32:35;0.65;;;0.20;;
73084;SDS011;62974;49.460;10.892;2023-03-31T15:35:05;1.02;;;0.20;;
73084;SDS011;62974;49.460;10.892;2023-03-31T15:37:48;2.13;;;0.28;;
73084;SDS011;62974;49.460;10.892;2023-03-31T15:40:18;0.77;;;0.10;;
73084;SDS011;62974;49.460;10.892;2023-03-31T15:42:48;1.45;;;0.40;;
73084;SDS011;62974;49.460;10.892;2023-03-31T15:45:48;1.45;;;0.35;;
73084;SDS011;62974;49.460;10.892;2023-03-31T15:48:20;0.40;;;0.20;;